Time;durP1;ratioP1;P1;durP2;ratioP2;P2;SDS_P1;SDS_P2;PMS_P1;PMS_P2;Temp;Humidity;BMP_temperature;BMP_pressure;BME280_temperature;BME280_humidity;BME280_pressure;Samples;Min_cycle;Max_cycle;Signal;HPM_P1;HPM_P2
2021/02/23 00:00:41;;;;;;;4.850001;2.35;;;;;;;1.86;93.61426;96373.56;;;;
2021/02/23 00:01:44;;;;;;;4.850001;2.35;;;;;;;1.86;93.61426;96373.56;;;;
2021/02/23 00:02:45;;;;;;;4.850001;2.35;;;;;;;1.86;93.61426;96373.56;;;;
2021/02/23 00:03:46;;;;;;;4.850001;2.35;;;;;;;1.86;93.61426;96373.56;;;;
2021/02/23 00:04:46;;;;;;;4.850001;2.35;;;;;;;1.86;93.61426;96373.56;;;;
2021/02/23 00:05:47;;;;;;;4.7;2.6;;;;;;;2.1;93.61523;96394.51;;;;
2021/02/23 00:06:48;;;;;;;4.7;2.6;;;;;;;2.1;93.61523;96394.51;;;;
2021/02/23 00:07:48;;;;;;;4.7;2.6;;;;;;;2.1;93.61523;96394.51;;;;
2021/02/23 00:08:49;;;;;;;4.7;2.6;;;;;;;2.1;93.61523;96394.51;;;;
2021/02/23 00:09:50;;;;;;;4.7;2.6;;;;;;;2.1;93.61523;96394.51;;;;
2021/02/23 00:10:50;;;;;;;4.7;2.6;;;;;;;2.1;93.61523;96394.51;;;;
2021/02/23 00:11:51;;;;;;;4.7;2.6;;;;;;;2.1;93.61523;96394.51;;;;
2021/02/23 00:12:51;;;;;;;4.7;2.6;;;;;;;2.1;93.61523;96394.51;;;;
2021/02/23 00:13:53;;;;;;;4.7;2.6;;;;;;;2.1;93.61523;96394.51;;;;
2021/02/23 00:14:54;;;;;;;4.7;2.6;;;;;;;2.1;93.61523;96394.51;;;;
2021/02/23 00:15:54;;;;;;;4;1.95;;;;;;;2.18;93.38184;96411.96;;;;
2021/02/23 00:16:55;;;;;;;4;1.95;;;;;;;2.18;93.38184;96411.96;;;;
2021/02/23 00:17:55;;;;;;;4;1.95;;;;;;;2.18;93.38184;96411.96;;;;
2021/02/23 00:18:56;;;;;;;4;1.95;;;;;;;2.18;93.38184;96411.96;;;;
2021/02/23 00:19:57;;;;;;;4;1.95;;;;;;;2.18;93.38184;96411.96;;;;
2021/02/23 00:20:58;;;;;;;4;1.95;;;;;;;2.18;93.38184;96411.96;;;;
2021/02/23 00:21:58;;;;;;;4;1.95;;;;;;;2.18;93.38184;96411.96;;;;
2021/02/23 00:22:59;;;;;;;4;1.95;;;;;;;2.18;93.38184;96411.96;;;;
2021/02/23 00:23:59;;;;;;;4;1.95;;;;;;;2.18;93.38184;96411.96;;;;
2021/02/23 00:25:00;;;;;;;4;1.95;;;;;;;2.18;93.38184;96411.96;;;;
2021/02/23 00:26:00;;;;;;;4;1.95;;;;;;;2.18;93.38184;96411.96;;;;
2021/02/23 00:27:01;;;;;;;4.85;2.25;;;;;;;2.15;93.39648;96423.36;;;;
2021/02/23 00:28:02;;;;;;;4.85;2.25;;;;;;;2.15;93.39648;96423.36;;;;
2021/02/23 00:29:04;;;;;;;4.85;2.25;;;;;;;2.15;93.39648;96423.36;;;;
2021/02/23 00:30:04;;;;;;;4.85;2.25;;;;;;;2.15;93.39648;96423.36;;;;
2021/02/23 00:31:07;;;;;;;4.85;2.25;;;;;;;2.15;93.39648;96423.36;;;;
2021/02/23 00:32:07;;;;;;;4.85;2.25;;;;;;;2.15;93.39648;96423.36;;;;
2021/02/23 00:33:08;;;;;;;4.85;2.25;;;;;;;2.15;93.39648;96423.36;;;;
2021/02/23 00:34:10;;;;;;;4.85;2.25;;;;;;;2.15;93.39648;96423.36;;;;
2021/02/23 00:35:10;;;;;;;4.85;2.25;;;;;;;2.15;93.39648;96423.36;;;;
2021/02/23 00:36:12;;;;;;;4.85;2.25;;;;;;;2.15;93.39648;96423.36;;;;
2021/02/23 00:37:12;;;;;;;5.15;2.15;;;;;;;2.08;93.53613;96438.3;;;;
2021/02/23 00:38:13;;;;;;;5.15;2.15;;;;;;;2.08;93.53613;96438.3;;;;
2021/02/23 00:39:15;;;;;;;5.15;2.15;;;;;;;2.08;93.53613;96438.3;;;;
2021/02/23 00:40:15;;;;;;;5.15;2.15;;;;;;;2.08;93.53613;96438.3;;;;
2021/02/23 00:41:16;;;;;;;5.15;2.15;;;;;;;2.08;93.53613;96438.3;;;;
2021/02/23 00:42:17;;;;;;;5.15;2.15;;;;;;;2.08;93.53613;96438.3;;;;
2021/02/23 00:43:18;;;;;;;5.15;2.15;;;;;;;2.08;93.53613;96438.3;;;;
2021/02/23 00:44:19;;;;;;;5.15;2.15;;;;;;;2.08;93.53613;96438.3;;;;
2021/02/23 00:45:19;;;;;;;5.15;2.15;;;;;;;2.08;93.53613;96438.3;;;;
2021/02/23 00:46:20;;;;;;;5.15;2.15;;;;;;;2.08;93.53613;96438.3;;;;
2021/02/23 00:47:20;;;;;;;5.15;2.15;;;;;;;2.08;93.53613;96438.3;;;;
2021/02/23 00:48:21;;;;;;;4;2.1;;;;;;;2.02;93.63867;96440.24;;;;
2021/02/23 00:49:21;;;;;;;4;2.1;;;;;;;2.02;93.63867;96440.24;;;;
2021/02/23 00:50:22;;;;;;;4;2.1;;;;;;;2.02;93.63867;96440.24;;;;
2021/02/23 00:51:24;;;;;;;4;2.1;;;;;;;2.02;93.63867;96440.24;;;;
2021/02/23 00:52:24;;;;;;;4;2.1;;;;;;;2.02;93.63867;96440.24;;;;
2021/02/23 00:53:25;;;;;;;4;2.1;;;;;;;2.02;93.63867;96440.24;;;;
2021/02/23 00:54:25;;;;;;;4;2.1;;;;;;;2.02;93.63867;96440.24;;;;
2021/02/23 00:55:26;;;;;;;4;2.1;;;;;;;2.02;93.63867;96440.24;;;;
2021/02/23 00:56:27;;;;;;;4;2.1;;;;;;;2.02;93.63867;96440.24;;;;
2021/02/23 00:57:27;;;;;;;4;2.1;;;;;;;2.02;93.63867;96440.24;;;;
2021/02/23 00:58:28;;;;;;;3.8;2.25;;;;;;;1.94;93.64063;96446.86;;;;
2021/02/23 00:59:28;;;;;;;3.8;2.25;;;;;;;1.94;93.64063;96446.86;;;;
2021/02/23 01:00:29;;;;;;;3.8;2.25;;;;;;;1.94;93.64063;96446.86;;;;
2021/02/23 01:01:29;;;;;;;3.8;2.25;;;;;;;1.94;93.64063;96446.86;;;;
2021/02/23 01:02:30;;;;;;;3.8;2.25;;;;;;;1.94;93.64063;96446.86;;;;
2021/02/23 01:03:30;;;;;;;3.8;2.25;;;;;;;1.94;93.64063;96446.86;;;;
2021/02/23 01:04:31;;;;;;;3.8;2.25;;;;;;;1.94;93.64063;96446.86;;;;
2021/02/23 01:05:31;;;;;;;3.8;2.25;;;;;;;1.94;93.64063;96446.86;;;;
2021/02/23 01:06:32;;;;;;;3.8;2.25;;;;;;;1.94;93.64063;96446.86;;;;
2021/02/23 01:07:32;;;;;;;3.8;2.25;;;;;;;1.94;93.64063;96446.86;;;;
2021/02/23 01:08:33;;;;;;;3.8;2.25;;;;;;;1.94;93.64063;96446.86;;;;
2021/02/23 01:09:33;;;;;;;5.65;2.05;;;;;;;1.91;93.65527;96454.74;;;;
2021/02/23 01:10:34;;;;;;;5.65;2.05;;;;;;;1.91;93.65527;96454.74;;;;
2021/02/23 01:11:37;;;;;;;5.65;2.05;;;;;;;1.91;93.65527;96454.74;;;;
2021/02/23 01:12:38;;;;;;;5.65;2.05;;;;;;;1.91;93.65527;96454.74;;;;
2021/02/23 01:13:39;;;;;;;5.65;2.05;;;;;;;1.91;93.65527;96454.74;;;;
2021/02/23 01:14:40;;;;;;;5.65;2.05;;;;;;;1.91;93.65527;96454.74;;;;
2021/02/23 01:15:42;;;;;;;5.65;2.05;;;;;;;1.91;93.65527;96454.74;;;;
2021/02/23 01:16:42;;;;;;;5.65;2.05;;;;;;;1.91;93.65527;96454.74;;;;
2021/02/23 01:17:43;;;;;;;5.65;2.05;;;;;;;1.91;93.65527;96454.74;;;;
2021/02/23 01:18:44;;;;;;;5.65;2.05;;;;;;;1.91;93.65527;96454.74;;;;
2021/02/23 01:19:44;;;;;;;3.850001;2.2;;;;;;;1.78;93.50195;96465.36;;;;
2021/02/23 01:20:45;;;;;;;3.850001;2.2;;;;;;;1.78;93.50195;96465.36;;;;
2021/02/23 01:21:46;;;;;;;3.850001;2.2;;;;;;;1.78;93.50195;96465.36;;;;
2021/02/23 01:22:46;;;;;;;3.850001;2.2;;;;;;;1.78;93.50195;96465.36;;;;
2021/02/23 01:23:47;;;;;;;3.850001;2.2;;;;;;;1.78;93.50195;96465.36;;;;
2021/02/23 01:24:47;;;;;;;3.850001;2.2;;;;;;;1.78;93.50195;96465.36;;;;
2021/02/23 01:25:47;;;;;;;3.850001;2.2;;;;;;;1.78;93.50195;96465.36;;;;
2021/02/23 01:26:48;;;;;;;3.850001;2.2;;;;;;;1.78;93.50195;96465.36;;;;
2021/02/23 01:27:48;;;;;;;3.850001;2.2;;;;;;;1.78;93.50195;96465.36;;;;
2021/02/23 01:28:49;;;;;;;3.850001;2.2;;;;;;;1.78;93.50195;96465.36;;;;
2021/02/23 01:29:50;;;;;;;3.850001;2.2;;;;;;;1.78;93.50195;96465.36;;;;
2021/02/23 01:30:50;;;;;;;5.2;2.5;;;;;;;1.64;93.68164;96482.69;;;;
2021/02/23 01:31:51;;;;;;;5.2;2.5;;;;;;;1.64;93.68164;96482.69;;;;
2021/02/23 01:32:51;;;;;;;5.2;2.5;;;;;;;1.64;93.68164;96482.69;;;;
2021/02/23 01:33:52;;;;;;;5.2;2.5;;;;;;;1.64;93.68164;96482.69;;;;
2021/02/23 01:34:53;;;;;;;5.2;2.5;;;;;;;1.64;93.68164;96482.69;;;;
2021/02/23 01:35:53;;;;;;;5.2;2.5;;;;;;;1.64;93.68164;96482.69;;;;
2021/02/23 01:36:54;;;;;;;5.2;2.5;;;;;;;1.64;93.68164;96482.69;;;;
2021/02/23 01:37:54;;;;;;;5.2;2.5;;;;;;;1.64;93.68164;96482.69;;;;
2021/02/23 01:38:55;;;;;;;5.2;2.5;;;;;;;1.64;93.68164;96482.69;;;;
2021/02/23 01:39:55;;;;;;;5.2;2.5;;;;;;;1.64;93.68164;96482.69;;;;
2021/02/23 01:40:56;;;;;;;5.2;2.5;;;;;;;1.64;93.68164;96482.69;;;;
2021/02/23 01:41:56;;;;;;;4.4;2.3;;;;;;;1.6;93.7666;96485.3;;;;
2021/02/23 01:42:57;;;;;;;4.4;2.3;;;;;;;1.6;93.7666;96485.3;;;;
2021/02/23 01:43:58;;;;;;;4.4;2.3;;;;;;;1.6;93.7666;96485.3;;;;
2021/02/23 01:44:58;;;;;;;4.4;2.3;;;;;;;1.6;93.7666;96485.3;;;;
2021/02/23 01:45:59;;;;;;;4.4;2.3;;;;;;;1.6;93.7666;96485.3;;;;
2021/02/23 01:46:59;;;;;;;4.4;2.3;;;;;;;1.6;93.7666;96485.3;;;;
2021/02/23 01:48:00;;;;;;;4.4;2.3;;;;;;;1.6;93.7666;96485.3;;;;
2021/02/23 01:49:05;;;;;;;4.4;2.3;;;;;;;1.6;93.7666;96485.3;;;;
2021/02/23 01:50:09;;;;;;;4.4;2.3;;;;;;;1.6;93.7666;96485.3;;;;
2021/02/23 01:51:10;;;;;;;4.4;2.3;;;;;;;1.6;93.7666;96485.3;;;;
2021/02/23 01:52:11;;;;;;;5.299999;2.3;;;;;;;1.53;93.63574;96497.13;;;;
2021/02/23 01:53:11;;;;;;;5.299999;2.3;;;;;;;1.53;93.63574;96497.13;;;;
2021/02/23 01:54:12;;;;;;;5.299999;2.3;;;;;;;1.53;93.63574;96497.13;;;;
2021/02/23 01:55:12;;;;;;;5.299999;2.3;;;;;;;1.53;93.63574;96497.13;;;;
2021/02/23 01:56:18;;;;;;;5.299999;2.3;;;;;;;1.53;93.63574;96497.13;;;;
2021/02/23 01:57:21;;;;;;;5.299999;2.3;;;;;;;1.53;93.63574;96497.13;;;;
2021/02/23 01:58:22;;;;;;;5.299999;2.3;;;;;;;1.53;93.63574;96497.13;;;;
2021/02/23 01:59:22;;;;;;;5.299999;2.3;;;;;;;1.53;93.63574;96497.13;;;;
2021/02/23 02:00:23;;;;;;;5.299999;2.3;;;;;;;1.53;93.63574;96497.13;;;;
2021/02/23 02:01:25;;;;;;;5.299999;2.3;;;;;;;1.53;93.63574;96497.13;;;;
2021/02/23 02:02:27;;;;;;;4.65;2.25;;;;;;;1.44;93.64844;96504.19;;;;
2021/02/23 02:03:28;;;;;;;4.65;2.25;;;;;;;1.44;93.64844;96504.19;;;;
2021/02/23 02:04:28;;;;;;;4.65;2.25;;;;;;;1.44;93.64844;96504.19;;;;
2021/02/23 02:05:29;;;;;;;4.65;2.25;;;;;;;1.44;93.64844;96504.19;;;;
2021/02/23 02:06:30;;;;;;;4.65;2.25;;;;;;;1.44;93.64844;96504.19;;;;
2021/02/23 02:07:30;;;;;;;4.65;2.25;;;;;;;1.44;93.64844;96504.19;;;;
2021/02/23 02:08:31;;;;;;;4.65;2.25;;;;;;;1.44;93.64844;96504.19;;;;
2021/02/23 02:09:32;;;;;;;4.65;2.25;;;;;;;1.44;93.64844;96504.19;;;;
2021/02/23 02:10:32;;;;;;;4.65;2.25;;;;;;;1.44;93.64844;96504.19;;;;
2021/02/23 02:11:33;;;;;;;4.65;2.25;;;;;;;1.44;93.64844;96504.19;;;;
2021/02/23 02:12:33;;;;;;;4.65;2.25;;;;;;;1.44;93.64844;96504.19;;;;
2021/02/23 02:13:34;;;;;;;4.699999;2.25;;;;;;;1.35;93.65918;96509.99;;;;
2021/02/23 02:14:34;;;;;;;4.699999;2.25;;;;;;;1.35;93.65918;96509.99;;;;
2021/02/23 02:15:35;;;;;;;4.699999;2.25;;;;;;;1.35;93.65918;96509.99;;;;
2021/02/23 02:16:36;;;;;;;4.699999;2.25;;;;;;;1.35;93.65918;96509.99;;;;
2021/02/23 02:17:36;;;;;;;4.699999;2.25;;;;;;;1.35;93.65918;96509.99;;;;
2021/02/23 02:18:38;;;;;;;4.699999;2.25;;;;;;;1.35;93.65918;96509.99;;;;
2021/02/23 02:19:38;;;;;;;4.699999;2.25;;;;;;;1.35;93.65918;96509.99;;;;
2021/02/23 02:20:40;;;;;;;4.699999;2.25;;;;;;;1.35;93.65918;96509.99;;;;
2021/02/23 02:21:40;;;;;;;4.699999;2.25;;;;;;;1.35;93.65918;96509.99;;;;
2021/02/23 02:22:43;;;;;;;4.699999;2.25;;;;;;;1.35;93.65918;96509.99;;;;
2021/02/23 02:23:44;;;;;;;3.95;2.15;;;;;;;1.26;93.71191;96517.14;;;;
2021/02/23 02:24:45;;;;;;;3.95;2.15;;;;;;;1.26;93.71191;96517.14;;;;
2021/02/23 02:25:46;;;;;;;3.95;2.15;;;;;;;1.26;93.71191;96517.14;;;;
2021/02/23 02:26:46;;;;;;;3.95;2.15;;;;;;;1.26;93.71191;96517.14;;;;
2021/02/23 02:27:47;;;;;;;3.95;2.15;;;;;;;1.26;93.71191;96517.14;;;;
2021/02/23 02:28:48;;;;;;;3.95;2.15;;;;;;;1.26;93.71191;96517.14;;;;
2021/02/23 02:29:48;;;;;;;3.95;2.15;;;;;;;1.26;93.71191;96517.14;;;;
2021/02/23 02:30:49;;;;;;;3.95;2.15;;;;;;;1.26;93.71191;96517.14;;;;
2021/02/23 02:31:49;;;;;;;3.95;2.15;;;;;;;1.26;93.71191;96517.14;;;;
2021/02/23 02:32:50;;;;;;;3.95;2.15;;;;;;;1.26;93.71191;96517.14;;;;
2021/02/23 02:33:50;;;;;;;3.95;2.15;;;;;;;1.26;93.71191;96517.14;;;;
2021/02/23 02:34:51;;;;;;;5.3;2.2;;;;;;;1.18;93.82031;96528.58;;;;
2021/02/23 02:35:53;;;;;;;5.3;2.2;;;;;;;1.18;93.82031;96528.58;;;;
2021/02/23 02:36:53;;;;;;;5.3;2.2;;;;;;;1.18;93.82031;96528.58;;;;
2021/02/23 02:37:54;;;;;;;5.3;2.2;;;;;;;1.18;93.82031;96528.58;;;;
2021/02/23 02:38:55;;;;;;;5.3;2.2;;;;;;;1.18;93.82031;96528.58;;;;
2021/02/23 02:39:55;;;;;;;5.3;2.2;;;;;;;1.18;93.82031;96528.58;;;;
2021/02/23 02:40:56;;;;;;;5.3;2.2;;;;;;;1.18;93.82031;96528.58;;;;
2021/02/23 02:41:56;;;;;;;5.3;2.2;;;;;;;1.18;93.82031;96528.58;;;;
2021/02/23 02:42:57;;;;;;;5.3;2.2;;;;;;;1.18;93.82031;96528.58;;;;
2021/02/23 02:43:59;;;;;;;5.3;2.2;;;;;;;1.18;93.82031;96528.58;;;;
2021/02/23 02:44:59;;;;;;;5.3;2.2;;;;;;;1.18;93.82031;96528.58;;;;
2021/02/23 02:46:00;;;;;;;5.999999;2.35;;;;;;;1.12;93.90918;96537.14;;;;
2021/02/23 02:47:03;;;;;;;5.999999;2.35;;;;;;;1.12;93.90918;96537.14;;;;
2021/02/23 02:48:04;;;;;;;5.999999;2.35;;;;;;;1.12;93.90918;96537.14;;;;
2021/02/23 02:49:05;;;;;;;5.999999;2.35;;;;;;;1.12;93.90918;96537.14;;;;
2021/02/23 02:50:06;;;;;;;5.999999;2.35;;;;;;;1.12;93.90918;96537.14;;;;
2021/02/23 02:51:08;;;;;;;5.999999;2.35;;;;;;;1.12;93.90918;96537.14;;;;
2021/02/23 02:52:08;;;;;;;5.999999;2.35;;;;;;;1.12;93.90918;96537.14;;;;
2021/02/23 02:53:09;;;;;;;5.999999;2.35;;;;;;;1.12;93.90918;96537.14;;;;
2021/02/23 02:54:09;;;;;;;5.999999;2.35;;;;;;;1.12;93.90918;96537.14;;;;
2021/02/23 02:55:10;;;;;;;5.999999;2.35;;;;;;;1.12;93.90918;96537.14;;;;
2021/02/23 02:56:13;;;;;;;7.95;2.75;;;;;;;0.98;94.03711;96547.3;;;;
2021/02/23 02:57:14;;;;;;;7.95;2.75;;;;;;;0.98;94.03711;96547.3;;;;
2021/02/23 02:58:16;;;;;;;7.95;2.75;;;;;;;0.98;94.03711;96547.3;;;;
2021/02/23 02:59:16;;;;;;;7.95;2.75;;;;;;;0.98;94.03711;96547.3;;;;
2021/02/23 03:00:16;;;;;;;7.95;2.75;;;;;;;0.98;94.03711;96547.3;;;;
2021/02/23 03:01:20;;;;;;;7.95;2.75;;;;;;;0.98;94.03711;96547.3;;;;
2021/02/23 03:02:21;;;;;;;7.95;2.75;;;;;;;0.98;94.03711;96547.3;;;;
2021/02/23 03:03:21;;;;;;;7.95;2.75;;;;;;;0.98;94.03711;96547.3;;;;
2021/02/23 03:04:23;;;;;;;7.95;2.75;;;;;;;0.98;94.03711;96547.3;;;;
2021/02/23 03:05:24;;;;;;;7.95;2.75;;;;;;;0.98;94.03711;96547.3;;;;
2021/02/23 03:06:25;;;;;;;7.95;2.75;;;;;;;0.98;94.03711;96547.3;;;;
2021/02/23 03:07:26;;;;;;;6.3;2.75;;;;;;;0.9;94.22559;96572.52;;;;
2021/02/23 03:08:27;;;;;;;6.3;2.75;;;;;;;0.9;94.22559;96572.52;;;;
2021/02/23 03:09:27;;;;;;;6.3;2.75;;;;;;;0.9;94.22559;96572.52;;;;
2021/02/23 03:10:28;;;;;;;6.3;2.75;;;;;;;0.9;94.22559;96572.52;;;;
2021/02/23 03:11:31;;;;;;;6.3;2.75;;;;;;;0.9;94.22559;96572.52;;;;
2021/02/23 03:12:31;;;;;;;6.3;2.75;;;;;;;0.9;94.22559;96572.52;;;;
2021/02/23 03:13:31;;;;;;;6.3;2.75;;;;;;;0.9;94.22559;96572.52;;;;
2021/02/23 03:14:32;;;;;;;6.3;2.75;;;;;;;0.9;94.22559;96572.52;;;;
2021/02/23 03:15:33;;;;;;;6.3;2.75;;;;;;;0.9;94.22559;96572.52;;;;
2021/02/23 03:16:34;;;;;;;6.3;2.75;;;;;;;0.9;94.22559;96572.52;;;;
2021/02/23 03:17:34;;;;;;;5.199999;2.15;;;;;;;0.86;94.43652;96575.12;;;;
2021/02/23 03:18:35;;;;;;;5.199999;2.15;;;;;;;0.86;94.43652;96575.12;;;;
2021/02/23 03:19:36;;;;;;;5.199999;2.15;;;;;;;0.86;94.43652;96575.12;;;;
2021/02/23 03:20:36;;;;;;;5.199999;2.15;;;;;;;0.86;94.43652;96575.12;;;;
2021/02/23 03:21:37;;;;;;;5.199999;2.15;;;;;;;0.86;94.43652;96575.12;;;;
2021/02/23 03:22:37;;;;;;;5.199999;2.15;;;;;;;0.86;94.43652;96575.12;;;;
2021/02/23 03:23:39;;;;;;;5.199999;2.15;;;;;;;0.86;94.43652;96575.12;;;;
2021/02/23 03:24:39;;;;;;;5.199999;2.15;;;;;;;0.86;94.43652;96575.12;;;;
2021/02/23 03:25:40;;;;;;;5.199999;2.15;;;;;;;0.86;94.43652;96575.12;;;;
2021/02/23 03:26:41;;;;;;;5.199999;2.15;;;;;;;0.86;94.43652;96575.12;;;;
2021/02/23 03:27:41;;;;;;;5.199999;2.15;;;;;;;0.86;94.43652;96575.12;;;;
2021/02/23 03:28:43;;;;;;;5.199999;2.05;;;;;;;0.74;94.38867;96599.27;;;;
2021/02/23 03:29:43;;;;;;;5.199999;2.05;;;;;;;0.74;94.38867;96599.27;;;;
2021/02/23 03:30:44;;;;;;;5.199999;2.05;;;;;;;0.74;94.38867;96599.27;;;;
2021/02/23 03:31:44;;;;;;;5.199999;2.05;;;;;;;0.74;94.38867;96599.27;;;;
2021/02/23 03:32:45;;;;;;;5.199999;2.05;;;;;;;0.74;94.38867;96599.27;;;;
2021/02/23 03:33:45;;;;;;;5.199999;2.05;;;;;;;0.74;94.38867;96599.27;;;;
2021/02/23 03:34:46;;;;;;;5.199999;2.05;;;;;;;0.74;94.38867;96599.27;;;;
2021/02/23 03:35:46;;;;;;;5.199999;2.05;;;;;;;0.74;94.38867;96599.27;;;;
2021/02/23 03:36:47;;;;;;;5.199999;2.05;;;;;;;0.74;94.38867;96599.27;;;;
2021/02/23 03:37:48;;;;;;;5.199999;2.05;;;;;;;0.74;94.38867;96599.27;;;;
2021/02/23 03:38:50;;;;;;;6.8;2.35;;;;;;;0.68;94.65625;96605.59;;;;
2021/02/23 03:39:51;;;;;;;6.8;2.35;;;;;;;0.68;94.65625;96605.59;;;;
2021/02/23 03:40:51;;;;;;;6.8;2.35;;;;;;;0.68;94.65625;96605.59;;;;
2021/02/23 03:41:52;;;;;;;6.8;2.35;;;;;;;0.68;94.65625;96605.59;;;;
2021/02/23 03:42:52;;;;;;;6.8;2.35;;;;;;;0.68;94.65625;96605.59;;;;
2021/02/23 03:43:53;;;;;;;6.8;2.35;;;;;;;0.68;94.65625;96605.59;;;;
2021/02/23 03:44:53;;;;;;;6.8;2.35;;;;;;;0.68;94.65625;96605.59;;;;
2021/02/23 03:45:54;;;;;;;6.8;2.35;;;;;;;0.68;94.65625;96605.59;;;;
2021/02/23 03:46:54;;;;;;;6.8;2.35;;;;;;;0.68;94.65625;96605.59;;;;
2021/02/23 03:47:55;;;;;;;6.8;2.35;;;;;;;0.68;94.65625;96605.59;;;;
2021/02/23 03:48:57;;;;;;;6.8;2.35;;;;;;;0.68;94.65625;96605.59;;;;
2021/02/23 03:49:58;;;;;;;7.05;2.299999;;;;;;;0.61;94.55859;96620.43;;;;
2021/02/23 03:50:58;;;;;;;7.05;2.299999;;;;;;;0.61;94.55859;96620.43;;;;
2021/02/23 03:51:58;;;;;;;7.05;2.299999;;;;;;;0.61;94.55859;96620.43;;;;
2021/02/23 03:52:59;;;;;;;7.05;2.299999;;;;;;;0.61;94.55859;96620.43;;;;
2021/02/23 03:53:59;;;;;;;7.05;2.299999;;;;;;;0.61;94.55859;96620.43;;;;
2021/02/23 03:55:00;;;;;;;7.05;2.299999;;;;;;;0.61;94.55859;96620.43;;;;
2021/02/23 03:56:00;;;;;;;7.05;2.299999;;;;;;;0.61;94.55859;96620.43;;;;
2021/02/23 03:57:01;;;;;;;7.05;2.299999;;;;;;;0.61;94.55859;96620.43;;;;
2021/02/23 03:58:02;;;;;;;7.05;2.299999;;;;;;;0.61;94.55859;96620.43;;;;
2021/02/23 03:59:02;;;;;;;7.05;2.299999;;;;;;;0.61;94.55859;96620.43;;;;
2021/02/23 04:00:03;;;;;;;6.099999;2.55;;;;;;;0.52;94.62109;96640.28;;;;
2021/02/23 04:01:06;;;;;;;6.099999;2.55;;;;;;;0.52;94.62109;96640.28;;;;
2021/02/23 04:02:07;;;;;;;6.099999;2.55;;;;;;;0.52;94.62109;96640.28;;;;
2021/02/23 04:03:07;;;;;;;6.099999;2.55;;;;;;;0.52;94.62109;96640.28;;;;
2021/02/23 04:04:08;;;;;;;6.099999;2.55;;;;;;;0.52;94.62109;96640.28;;;;
2021/02/23 04:05:08;;;;;;;6.099999;2.55;;;;;;;0.52;94.62109;96640.28;;;;
2021/02/23 04:06:12;;;;;;;6.099999;2.55;;;;;;;0.52;94.62109;96640.28;;;;
2021/02/23 04:07:12;;;;;;;6.099999;2.55;;;;;;;0.52;94.62109;96640.28;;;;
2021/02/23 04:08:13;;;;;;;6.099999;2.55;;;;;;;0.52;94.62109;96640.28;;;;
2021/02/23 04:09:14;;;;;;;6.099999;2.55;;;;;;;0.52;94.62109;96640.28;;;;
2021/02/23 04:10:14;;;;;;;6.099999;2.55;;;;;;;0.52;94.62109;96640.28;;;;
2021/02/23 04:11:18;;;;;;;7.05;2.7;;;;;;;0.44;94.7168;96649.95;;;;
2021/02/23 04:12:18;;;;;;;7.05;2.7;;;;;;;0.44;94.7168;96649.95;;;;
2021/02/23 04:13:19;;;;;;;7.05;2.7;;;;;;;0.44;94.7168;96649.95;;;;
2021/02/23 04:14:19;;;;;;;7.05;2.7;;;;;;;0.44;94.7168;96649.95;;;;
2021/02/23 04:15:20;;;;;;;7.05;2.7;;;;;;;0.44;94.7168;96649.95;;;;
2021/02/23 04:16:21;;;;;;;7.05;2.7;;;;;;;0.44;94.7168;96649.95;;;;
2021/02/23 04:17:22;;;;;;;7.05;2.7;;;;;;;0.44;94.7168;96649.95;;;;
2021/02/23 04:18:22;;;;;;;7.05;2.7;;;;;;;0.44;94.7168;96649.95;;;;
2021/02/23 04:19:23;;;;;;;7.05;2.7;;;;;;;0.44;94.7168;96649.95;;;;
2021/02/23 04:20:23;;;;;;;7.05;2.7;;;;;;;0.44;94.7168;96649.95;;;;
2021/02/23 04:21:24;;;;;;;6.9;2.8;;;;;;;0.29;94.85156;96649.52;;;;
2021/02/23 04:22:24;;;;;;;6.9;2.8;;;;;;;0.29;94.85156;96649.52;;;;
2021/02/23 04:23:25;;;;;;;6.9;2.8;;;;;;;0.29;94.85156;96649.52;;;;
2021/02/23 04:24:25;;;;;;;6.9;2.8;;;;;;;0.29;94.85156;96649.52;;;;
2021/02/23 04:25:26;;;;;;;6.9;2.8;;;;;;;0.29;94.85156;96649.52;;;;
2021/02/23 04:26:26;;;;;;;6.9;2.8;;;;;;;0.29;94.85156;96649.52;;;;
2021/02/23 04:27:27;;;;;;;6.9;2.8;;;;;;;0.29;94.85156;96649.52;;;;
2021/02/23 04:28:28;;;;;;;6.9;2.8;;;;;;;0.29;94.85156;96649.52;;;;
2021/02/23 04:29:29;;;;;;;6.9;2.8;;;;;;;0.29;94.85156;96649.52;;;;
2021/02/23 04:30:29;;;;;;;6.9;2.8;;;;;;;0.29;94.85156;96649.52;;;;
2021/02/23 04:31:30;;;;;;;6.9;2.8;;;;;;;0.29;94.85156;96649.52;;;;
2021/02/23 04:32:31;;;;;;;10.35;2.65;;;;;;;0.18;95.18945;96658.04;;;;
2021/02/23 04:33:31;;;;;;;10.35;2.65;;;;;;;0.18;95.18945;96658.04;;;;
2021/02/23 04:34:32;;;;;;;10.35;2.65;;;;;;;0.18;95.18945;96658.04;;;;
2021/02/23 04:35:32;;;;;;;10.35;2.65;;;;;;;0.18;95.18945;96658.04;;;;
2021/02/23 04:36:33;;;;;;;10.35;2.65;;;;;;;0.18;95.18945;96658.04;;;;
2021/02/23 04:37:33;;;;;;;10.35;2.65;;;;;;;0.18;95.18945;96658.04;;;;
2021/02/23 04:38:34;;;;;;;10.35;2.65;;;;;;;0.18;95.18945;96658.04;;;;
2021/02/23 04:39:34;;;;;;;10.35;2.65;;;;;;;0.18;95.18945;96658.04;;;;
2021/02/23 04:40:35;;;;;;;10.35;2.65;;;;;;;0.18;95.18945;96658.04;;;;
2021/02/23 04:41:35;;;;;;;10.35;2.65;;;;;;;0.18;95.18945;96658.04;;;;
2021/02/23 04:42:36;;;;;;;9.15;2.85;;;;;;;0.11;95.37988;96666.31;;;;
2021/02/23 04:43:36;;;;;;;9.15;2.85;;;;;;;0.11;95.37988;96666.31;;;;
2021/02/23 04:44:37;;;;;;;9.15;2.85;;;;;;;0.11;95.37988;96666.31;;;;
2021/02/23 04:45:37;;;;;;;9.15;2.85;;;;;;;0.11;95.37988;96666.31;;;;
2021/02/23 04:46:38;;;;;;;9.15;2.85;;;;;;;0.11;95.37988;96666.31;;;;
2021/02/23 04:47:38;;;;;;;9.15;2.85;;;;;;;0.11;95.37988;96666.31;;;;
2021/02/23 04:48:39;;;;;;;9.15;2.85;;;;;;;0.11;95.37988;96666.31;;;;
2021/02/23 04:49:39;;;;;;;9.15;2.85;;;;;;;0.11;95.37988;96666.31;;;;
2021/02/23 04:50:40;;;;;;;9.15;2.85;;;;;;;0.11;95.37988;96666.31;;;;
2021/02/23 04:51:41;;;;;;;9.15;2.85;;;;;;;0.11;95.37988;96666.31;;;;
2021/02/23 04:52:41;;;;;;;9.15;2.85;;;;;;;0.11;95.37988;96666.31;;;;
2021/02/23 04:53:41;;;;;;;3.45;2.45;;;;;;;0.05;95.5752;96675.66;;;;
2021/02/23 04:54:42;;;;;;;3.45;2.45;;;;;;;0.05;95.5752;96675.66;;;;
2021/02/23 04:55:43;;;;;;;3.45;2.45;;;;;;;0.05;95.5752;96675.66;;;;
2021/02/23 04:56:43;;;;;;;3.45;2.45;;;;;;;0.05;95.5752;96675.66;;;;
2021/02/23 04:57:43;;;;;;;3.45;2.45;;;;;;;0.05;95.5752;96675.66;;;;
2021/02/23 04:58:44;;;;;;;3.45;2.45;;;;;;;0.05;95.5752;96675.66;;;;
2021/02/23 04:59:44;;;;;;;3.45;2.45;;;;;;;0.05;95.5752;96675.66;;;;
2021/02/23 05:00:45;;;;;;;3.45;2.45;;;;;;;0.05;95.5752;96675.66;;;;
2021/02/23 05:01:45;;;;;;;3.45;2.45;;;;;;;0.05;95.5752;96675.66;;;;
2021/02/23 05:02:46;;;;;;;3.45;2.45;;;;;;;0.05;95.5752;96675.66;;;;
2021/02/23 05:03:46;;;;;;;3.45;2.45;;;;;;;0.05;95.5752;96675.66;;;;
2021/02/23 05:04:47;;;;;;;4.349999;2.4;;;;;;;0.09;95.71875;96694.72;;;;
2021/02/23 05:05:47;;;;;;;4.349999;2.4;;;;;;;0.09;95.71875;96694.72;;;;
2021/02/23 05:06:48;;;;;;;4.349999;2.4;;;;;;;0.09;95.71875;96694.72;;;;
2021/02/23 05:07:49;;;;;;;4.349999;2.4;;;;;;;0.09;95.71875;96694.72;;;;
2021/02/23 05:08:49;;;;;;;4.349999;2.4;;;;;;;0.09;95.71875;96694.72;;;;
2021/02/23 05:09:51;;;;;;;4.349999;2.4;;;;;;;0.09;95.71875;96694.72;;;;
2021/02/23 05:10:51;;;;;;;4.349999;2.4;;;;;;;0.09;95.71875;96694.72;;;;
2021/02/23 05:11:52;;;;;;;4.349999;2.4;;;;;;;0.09;95.71875;96694.72;;;;
2021/02/23 05:12:53;;;;;;;4.349999;2.4;;;;;;;0.09;95.71875;96694.72;;;;
2021/02/23 05:13:53;;;;;;;4.349999;2.4;;;;;;;0.09;95.71875;96694.72;;;;
2021/02/23 05:14:54;;;;;;;5.95;2.8;;;;;;;0.12;95.66211;96698.5;;;;
2021/02/23 05:15:54;;;;;;;5.95;2.8;;;;;;;0.12;95.66211;96698.5;;;;
2021/02/23 05:16:55;;;;;;;5.95;2.8;;;;;;;0.12;95.66211;96698.5;;;;
2021/02/23 05:17:55;;;;;;;5.95;2.8;;;;;;;0.12;95.66211;96698.5;;;;
2021/02/23 05:18:56;;;;;;;5.95;2.8;;;;;;;0.12;95.66211;96698.5;;;;
2021/02/23 05:19:56;;;;;;;5.95;2.8;;;;;;;0.12;95.66211;96698.5;;;;
2021/02/23 05:20:57;;;;;;;5.95;2.8;;;;;;;0.12;95.66211;96698.5;;;;
2021/02/23 05:21:57;;;;;;;5.95;2.8;;;;;;;0.12;95.66211;96698.5;;;;
2021/02/23 05:22:58;;;;;;;5.95;2.8;;;;;;;0.12;95.66211;96698.5;;;;
2021/02/23 05:23:58;;;;;;;5.95;2.8;;;;;;;0.12;95.66211;96698.5;;;;
2021/02/23 05:24:59;;;;;;;5.95;2.8;;;;;;;0.12;95.66211;96698.5;;;;
2021/02/23 05:26:00;;;;;;;5.799999;2.65;;;;;;;0.13;95.6748;96702.86;;;;
2021/02/23 05:27:01;;;;;;;5.799999;2.65;;;;;;;0.13;95.6748;96702.86;;;;
2021/02/23 05:28:02;;;;;;;5.799999;2.65;;;;;;;0.13;95.6748;96702.86;;;;
2021/02/23 05:29:02;;;;;;;5.799999;2.65;;;;;;;0.13;95.6748;96702.86;;;;
2021/02/23 05:30:03;;;;;;;5.799999;2.65;;;;;;;0.13;95.6748;96702.86;;;;
2021/02/23 05:31:06;;;;;;;5.799999;2.65;;;;;;;0.13;95.6748;96702.86;;;;
2021/02/23 05:32:06;;;;;;;5.799999;2.65;;;;;;;0.13;95.6748;96702.86;;;;
2021/02/23 05:33:07;;;;;;;5.799999;2.65;;;;;;;0.13;95.6748;96702.86;;;;
2021/02/23 05:34:08;;;;;;;5.799999;2.65;;;;;;;0.13;95.6748;96702.86;;;;
2021/02/23 05:35:09;;;;;;;5.799999;2.65;;;;;;;0.13;95.6748;96702.86;;;;
2021/02/23 05:36:10;;;;;;;6.349999;2.7;;;;;;;0.11;95.70215;96722.88;;;;
2021/02/23 05:37:10;;;;;;;6.349999;2.7;;;;;;;0.11;95.70215;96722.88;;;;
2021/02/23 05:38:11;;;;;;;6.349999;2.7;;;;;;;0.11;95.70215;96722.88;;;;
2021/02/23 05:39:11;;;;;;;6.349999;2.7;;;;;;;0.11;95.70215;96722.88;;;;
2021/02/23 05:40:12;;;;;;;6.349999;2.7;;;;;;;0.11;95.70215;96722.88;;;;
2021/02/23 05:41:13;;;;;;;6.349999;2.7;;;;;;;0.11;95.70215;96722.88;;;;
2021/02/23 05:42:17;;;;;;;6.349999;2.7;;;;;;;0.11;95.70215;96722.88;;;;
2021/02/23 05:43:18;;;;;;;6.349999;2.7;;;;;;;0.11;95.70215;96722.88;;;;
2021/02/23 05:44:19;;;;;;;6.349999;2.7;;;;;;;0.11;95.70215;96722.88;;;;
2021/02/23 05:45:21;;;;;;;6.349999;2.7;;;;;;;0.11;95.70215;96722.88;;;;
2021/02/23 05:46:25;;;;;;;6.349999;2.7;;;;;;;0.11;95.70215;96722.88;;;;
2021/02/23 05:47:26;;;;;;;7.1;2.7;;;;;;;0.02;95.79688;96726.78;;;;